createdAt,value
2023-03-05T00:00:18.885Z,99.99
2023-03-05T00:01:20.546Z,99.99
2023-03-05T00:02:20.573Z,99.99
2023-03-05T00:03:19.052Z,99.99
2023-03-05T00:04:19.081Z,99.99
2023-03-05T00:05:19.113Z,99.99
2023-03-05T00:06:19.130Z,99.99
2023-03-05T00:07:19.174Z,99.99
2023-03-05T00:08:19.218Z,99.99
2023-03-05T00:09:20.715Z,99.99
2023-03-05T00:10:20.736Z,99.99
2023-03-05T00:11:19.324Z,99.99
2023-03-05T00:12:19.388Z,99.99
2023-03-05T00:13:19.403Z,99.99
2023-03-05T00:14:19.489Z,99.99
2023-03-05T00:15:20.875Z,99.99
2023-03-05T00:16:21.000Z,99.99
2023-03-05T00:17:20.927Z,99.99
2023-03-05T00:18:20.979Z,99.99
2023-03-05T00:19:21.022Z,99.99
2023-03-05T00:20:20.987Z,99.99
2023-03-05T00:21:19.736Z,99.99
2023-03-05T00:22:19.781Z,99.99
2023-03-05T00:23:19.818Z,99.99
2023-03-05T00:24:21.075Z,99.99
2023-03-05T00:25:19.895Z,99.99
2023-03-05T00:26:19.944Z,99.99
2023-03-05T00:27:19.984Z,99.99
2023-03-05T00:28:20.033Z,99.99
2023-03-05T00:29:20.099Z,99.99
2023-03-05T00:30:20.115Z,99.99
2023-03-05T00:31:20.213Z,99.99
2023-03-05T00:32:20.203Z,99.99
2023-03-05T00:33:20.234Z,99.99
2023-03-05T00:34:20.316Z,99.99
2023-03-05T00:35:20.483Z,99.99
2023-03-05T00:36:21.362Z,99.99
2023-03-05T00:37:20.447Z,99.99
2023-03-05T00:38:20.475Z,99.99
2023-03-05T00:39:20.488Z,99.99
2023-03-05T00:40:20.562Z,99.99
2023-03-05T00:41:20.583Z,99.99
2023-03-05T00:42:20.633Z,99.99
2023-03-05T00:43:20.655Z,99.99
2023-03-05T00:44:21.546Z,99.99
2023-03-05T00:45:21.572Z,99.99
2023-03-05T00:46:20.807Z,99.99
2023-03-05T00:47:20.844Z,99.99
2023-03-05T00:48:20.851Z,99.99
2023-03-05T00:49:20.908Z,99.99
2023-03-05T00:50:20.928Z,99.99
2023-03-05T00:51:20.996Z,99.99
2023-03-05T00:52:21.797Z,99.99
2023-03-05T00:53:21.823Z,99.99
2023-03-05T00:54:21.784Z,99.99
2023-03-05T00:55:21.833Z,99.99
2023-03-05T00:56:21.861Z,99.99
2023-03-05T00:57:21.243Z,99.99
2023-03-05T00:58:21.288Z,99.99
2023-03-05T00:59:21.317Z,99.99
2023-03-05T01:00:21.349Z,99.99
2023-03-05T01:01:22.008Z,99.99
2023-03-05T01:02:22.013Z,99.99
2023-03-05T01:03:21.487Z,99.99
2023-03-05T01:04:21.509Z,99.99
2023-03-05T01:05:21.585Z,99.99
2023-03-05T01:06:21.796Z,99.99
2023-03-05T01:07:21.618Z,99.99
2023-03-05T01:08:21.697Z,99.99
2023-03-05T01:09:21.703Z,99.99
2023-03-05T01:10:21.790Z,99.99
2023-03-05T01:11:21.816Z,99.99
2023-03-05T01:12:21.858Z,99.99
2023-03-05T01:13:21.867Z,99.99
2023-03-05T01:14:21.915Z,99.99
2023-03-05T01:15:21.986Z,99.99
2023-03-05T01:16:22.003Z,99.99
2023-03-05T01:17:22.032Z,99.99
2023-03-05T01:18:22.081Z,99.99
2023-03-05T01:19:22.153Z,99.99
2023-03-05T01:20:22.168Z,99.99
2023-03-05T01:21:28.758Z,99.99
2023-03-05T01:22:22.239Z,99.99
2023-03-05T01:23:22.268Z,99.99
2023-03-05T01:24:22.347Z,99.99
2023-03-05T01:25:22.350Z,99.99
2023-03-05T01:26:22.396Z,99.99
2023-03-05T01:27:23.249Z,99.99
2023-03-05T01:28:22.515Z,99.99
2023-03-05T01:29:22.523Z,99.99
2023-03-05T01:30:22.593Z,99.99
2023-03-05T01:31:22.617Z,99.99
2023-03-05T01:32:22.651Z,99.99
2023-03-05T01:33:22.685Z,99.99
2023-03-05T01:34:22.717Z,99.99
2023-03-05T01:35:22.835Z,99.99
2023-03-05T01:36:29.753Z,99.99
2023-03-05T01:37:29.769Z,99.99
2023-03-05T01:38:22.889Z,99.99
2023-03-05T01:39:26.308Z,99.99
2023-03-05T01:40:22.971Z,99.99
2023-03-05T01:41:23.028Z,99.99
2023-03-05T01:42:23.049Z,99.99
2023-03-05T01:43:23.133Z,99.99
2023-03-05T01:44:23.131Z,99.99
2023-03-05T01:45:25.787Z,99.99
2023-03-05T01:46:23.215Z,99.99
2023-03-05T01:47:23.265Z,99.99
2023-03-05T01:48:23.324Z,99.99
2023-03-05T01:49:23.384Z,99.99
2023-03-05T01:50:23.442Z,99.99
2023-03-05T01:51:23.444Z,99.99
2023-03-05T01:52:23.486Z,99.99
2023-03-05T01:53:23.511Z,99.99
2023-03-05T01:54:24.252Z,99.99
2023-03-05T01:55:26.269Z,99.99
2023-03-05T01:56:23.628Z,99.99
2023-03-05T01:57:23.682Z,99.99
2023-03-05T01:58:23.709Z,99.99
2023-03-05T01:59:23.790Z,99.99
2023-03-05T02:00:23.791Z,99.99
2023-03-05T02:01:23.882Z,99.99
2023-03-05T02:02:23.883Z,99.99
2023-03-05T02:03:23.985Z,99.99
2023-03-05T02:04:23.987Z,99.99
2023-03-05T02:05:26.748Z,99.99
2023-03-05T02:06:24.073Z,99.99
2023-03-05T02:07:25.895Z,99.99
2023-03-05T02:08:24.126Z,99.99
2023-03-05T02:09:24.180Z,99.99
2023-03-05T02:10:26.023Z,99.99
2023-03-05T02:11:24.245Z,99.99
2023-03-05T02:12:24.290Z,99.99
2023-03-05T02:13:24.339Z,99.99
2023-03-05T02:14:24.452Z,99.99
2023-03-05T02:15:24.409Z,99.99
2023-03-05T02:16:24.500Z,99.99
2023-03-05T02:17:25.966Z,99.99
2023-03-05T02:18:26.008Z,99.99
2023-03-05T02:19:26.011Z,99.99
2023-03-05T02:20:26.096Z,99.99
2023-03-05T02:21:25.258Z,99.99
2023-03-05T02:22:26.084Z,99.99
2023-03-05T02:23:27.253Z,99.99
2023-03-05T02:24:26.015Z,99.99
2023-03-05T02:25:24.844Z,99.99
2023-03-05T02:26:24.904Z,99.99
2023-03-05T02:27:26.062Z,99.99
2023-03-05T02:28:24.957Z,99.99
2023-03-05T02:29:24.988Z,99.99
2023-03-05T02:30:26.154Z,99.99
2023-03-05T02:31:25.145Z,99.99
2023-03-05T02:32:25.171Z,99.99
2023-03-05T02:33:25.177Z,99.99
2023-03-05T02:34:25.192Z,99.99
2023-03-05T02:35:25.315Z,99.99
2023-03-05T02:36:25.299Z,99.99
2023-03-05T02:37:25.353Z,99.99
2023-03-05T02:38:25.372Z,99.99
2023-03-05T02:39:26.318Z,99.99
2023-03-05T02:40:25.441Z,99.99
2023-03-05T02:41:25.496Z,99.99
2023-03-05T02:42:26.328Z,99.99
2023-03-05T02:43:25.643Z,99.99
2023-03-05T02:44:25.607Z,99.99
2023-03-05T02:45:25.658Z,99.99
2023-03-05T02:46:25.692Z,99.99
2023-03-05T02:47:25.748Z,99.99
2023-03-05T02:48:25.802Z,99.99
2023-03-05T02:49:25.851Z,99.99
2023-03-05T02:50:25.857Z,99.99
2023-03-05T02:51:25.908Z,99.99
2023-03-05T02:52:25.978Z,99.99
2023-03-05T02:53:25.999Z,99.99
2023-03-05T02:54:26.029Z,99.99
2023-03-05T02:55:26.073Z,99.99
2023-03-05T02:56:26.104Z,99.99
2023-03-05T02:57:26.193Z,99.99
2023-03-05T02:58:26.213Z,99.99
2023-03-05T02:59:26.287Z,99.99
2023-03-05T03:00:26.267Z,99.99
2023-03-05T03:01:26.339Z,99.99
2023-03-05T03:02:26.389Z,99.99
2023-03-05T03:03:26.436Z,99.99
2023-03-05T03:04:26.471Z,99.99
2023-03-05T03:05:26.486Z,99.99
2023-03-05T03:06:26.529Z,99.99
2023-03-05T03:07:26.593Z,99.99
2023-03-05T03:08:26.611Z,99.99
2023-03-05T03:09:26.679Z,99.99
2023-03-05T03:10:26.692Z,99.99
2023-03-05T03:11:26.721Z,99.99
2023-03-05T03:12:26.821Z,99.99
2023-03-05T03:13:26.804Z,99.99
2023-03-05T03:14:26.855Z,99.99
2023-03-05T03:15:26.917Z,99.99
2023-03-05T03:16:26.992Z,99.99
2023-03-05T03:17:26.994Z,99.99
2023-03-05T03:18:27.058Z,99.99
2023-03-05T03:19:27.054Z,99.99
2023-03-05T03:20:27.111Z,99.99
2023-03-05T03:21:27.178Z,99.99
2023-03-05T03:22:27.187Z,99.99
2023-03-05T03:23:27.220Z,99.99
2023-03-05T03:24:27.269Z,99.99
2023-03-05T03:25:27.316Z,99.99
2023-03-05T03:26:27.391Z,99.99
2023-03-05T03:27:27.382Z,99.99
2023-03-05T03:28:27.442Z,99.99
2023-03-05T03:29:27.467Z,99.99
2023-03-05T03:30:27.545Z,99.99
2023-03-05T03:31:27.555Z,99.99
2023-03-05T03:32:27.629Z,99.99
2023-03-05T03:33:27.637Z,99.99
2023-03-05T03:34:27.676Z,99.99
2023-03-05T03:35:27.798Z,99.99
2023-03-05T03:36:27.758Z,99.99
2023-03-05T03:37:27.805Z,99.99
2023-03-05T03:38:27.840Z,99.99
2023-03-05T03:39:27.921Z,99.99
2023-03-05T03:40:27.918Z,99.99
2023-03-05T03:41:27.973Z,99.99
2023-03-05T03:42:28.004Z,99.99
2023-03-05T03:43:28.051Z,99.99
2023-03-05T03:44:28.114Z,99.99
2023-03-05T03:45:30.771Z,99.99
2023-03-05T03:46:30.416Z,99.99
2023-03-05T03:47:30.284Z,99.99
2023-03-05T03:48:30.289Z,99.99
2023-03-05T03:49:30.304Z,99.99
2023-03-05T03:50:28.375Z,99.99
2023-03-05T03:51:28.386Z,99.99
2023-03-05T03:52:30.367Z,99.99
2023-03-05T03:53:30.430Z,99.99
2023-03-05T03:54:28.496Z,99.99
2023-03-05T03:55:30.456Z,99.99
2023-03-05T03:56:28.584Z,99.99
2023-03-05T03:57:28.657Z,99.99
2023-03-05T03:58:31.266Z,99.99
2023-03-05T03:59:30.531Z,99.99
2023-03-05T04:00:28.743Z,99.99
2023-03-05T04:01:28.784Z,99.99
2023-03-05T04:02:30.630Z,99.99
2023-03-05T04:03:28.860Z,99.99
2023-03-05T04:04:30.668Z,99.99
2023-03-05T04:05:30.646Z,99.99
2023-03-05T04:06:28.996Z,99.99
2023-03-05T04:07:29.070Z,99.99
2023-03-05T04:08:29.111Z,99.99
2023-03-05T04:09:29.111Z,99.99
2023-03-05T04:10:30.750Z,99.99
2023-03-05T04:11:29.192Z,99.99
2023-03-05T04:12:30.775Z,99.99
2023-03-05T04:13:29.318Z,99.99
2023-03-05T04:14:29.363Z,99.99
2023-03-05T04:15:29.362Z,99.99
2023-03-05T04:16:29.402Z,99.99
2023-03-05T04:17:29.451Z,99.99
2023-03-05T04:18:31.595Z,99.99
2023-03-05T04:19:29.549Z,99.99
2023-03-05T04:20:29.582Z,99.99
2023-03-05T04:21:29.603Z,99.99
2023-03-05T04:22:29.654Z,99.99
2023-03-05T04:23:29.683Z,99.99
2023-03-05T04:24:30.069Z,99.99
2023-03-05T04:25:29.763Z,99.99
2023-03-05T04:26:29.816Z,99.99
2023-03-05T04:27:29.853Z,99.99
2023-03-05T04:28:29.897Z,99.99
2023-03-05T04:29:29.960Z,99.99
2023-03-05T04:30:30.004Z,99.99
2023-03-05T04:31:30.078Z,99.99
2023-03-05T04:32:30.268Z,99.99
2023-03-05T04:33:30.265Z,99.99
2023-03-05T04:34:30.126Z,99.99
2023-03-05T04:35:30.256Z,99.99
2023-03-05T04:36:30.210Z,99.99
2023-03-05T04:37:30.260Z,99.99
2023-03-05T04:38:30.297Z,99.99
2023-03-05T04:39:30.363Z,99.99
2023-03-05T04:40:30.389Z,99.99
2023-03-05T04:41:30.422Z,99.99
2023-03-05T04:42:31.261Z,99.99
2023-03-05T04:43:30.531Z,99.99
2023-03-05T04:44:30.537Z,99.99
2023-03-05T04:45:30.585Z,99.99
2023-03-05T04:46:30.645Z,99.99
2023-03-05T04:47:30.690Z,99.99
2023-03-05T04:48:30.728Z,99.99
2023-03-05T04:49:30.753Z,99.99
2023-03-05T04:50:30.791Z,99.99
2023-03-05T04:51:30.834Z,99.99
2023-03-05T04:52:30.867Z,99.99
2023-03-05T04:53:30.943Z,99.99
2023-03-05T04:54:30.947Z,99.99
2023-03-05T04:55:30.998Z,99.99
2023-03-05T04:56:31.044Z,99.99
2023-03-05T04:57:31.076Z,99.99
2023-03-05T04:58:31.152Z,99.99
2023-03-05T04:59:31.188Z,99.99
2023-03-05T05:00:31.203Z,99.99
2023-03-05T05:01:31.273Z,99.99
2023-03-05T05:02:31.297Z,99.99
2023-03-05T05:03:38.258Z,99.99
2023-03-05T05:04:34.807Z,99.99
2023-03-05T05:05:31.401Z,99.99
2023-03-05T05:06:31.453Z,99.99
2023-03-05T05:07:31.477Z,99.99
2023-03-05T05:08:31.528Z,99.99
2023-03-05T05:09:31.594Z,99.99
2023-03-05T05:10:31.634Z,99.99
2023-03-05T05:11:31.642Z,99.99
2023-03-05T05:12:31.693Z,99.99
2023-03-05T05:13:31.731Z,99.99
2023-03-05T05:14:31.821Z,99.99
2023-03-05T05:15:31.810Z,99.99
2023-03-05T05:16:31.868Z,99.99
2023-03-05T05:17:31.890Z,99.99
2023-03-05T05:18:31.942Z,99.99
2023-03-05T05:19:34.852Z,99.99
2023-03-05T05:20:32.018Z,99.99
2023-03-05T05:21:32.086Z,99.99
2023-03-05T05:22:38.767Z,99.99
2023-03-05T05:23:32.135Z,99.99
2023-03-05T05:24:32.224Z,99.99
2023-03-05T05:25:32.238Z,99.99
2023-03-05T05:26:32.272Z,99.99
2023-03-05T05:27:32.331Z,99.99
2023-03-05T05:28:32.344Z,99.99
2023-03-05T05:29:32.380Z,99.99
2023-03-05T05:30:32.446Z,99.99
2023-03-05T05:31:32.520Z,99.99
2023-03-05T05:32:32.602Z,99.99
2023-03-05T05:33:32.557Z,99.99
2023-03-05T05:34:32.586Z,99.99
2023-03-05T05:35:32.681Z,99.99
2023-03-05T05:36:32.666Z,99.99
2023-03-05T05:37:32.754Z,99.99
2023-03-05T05:38:32.754Z,99.99
2023-03-05T05:39:32.802Z,99.99
2023-03-05T05:40:32.838Z,99.99
2023-03-05T05:41:32.894Z,99.99
2023-03-05T05:42:32.945Z,99.99
2023-03-05T05:43:35.414Z,99.99
2023-03-05T05:44:34.797Z,99.99
2023-03-05T05:45:34.960Z,99.99
2023-03-05T05:46:34.923Z,99.99
2023-03-05T05:47:34.875Z,99.99
2023-03-05T05:48:33.191Z,99.99
2023-03-05T05:49:33.213Z,99.99
2023-03-05T05:50:34.970Z,99.99
2023-03-05T05:51:34.997Z,99.99
2023-03-05T05:52:33.336Z,99.99
2023-03-05T05:53:33.381Z,99.99
2023-03-05T05:54:35.073Z,99.99
2023-03-05T05:55:35.096Z,99.99
2023-03-05T05:56:35.189Z,99.99
2023-03-05T05:57:35.131Z,99.99
2023-03-05T05:58:35.140Z,99.99
2023-03-05T05:59:35.171Z,99.99
2023-03-05T06:00:35.177Z,99.99
2023-03-05T06:01:35.225Z,99.99
2023-03-05T06:02:33.746Z,99.99
2023-03-05T06:03:33.813Z,99.99
2023-03-05T06:04:35.330Z,99.99
2023-03-05T06:05:35.284Z,99.99
2023-03-05T06:06:35.288Z,99.99
2023-03-05T06:07:35.305Z,99.99
2023-03-05T06:08:35.326Z,99.99
2023-03-05T06:09:35.348Z,99.99
2023-03-05T06:10:35.375Z,99.99
2023-03-05T06:11:35.396Z,99.99
2023-03-05T06:12:35.430Z,99.99
2023-03-05T06:13:35.438Z,99.99
2023-03-05T06:14:35.510Z,99.99
2023-03-05T06:15:35.477Z,99.99
2023-03-05T06:16:35.549Z,99.99
2023-03-05T06:17:35.572Z,99.99
2023-03-05T06:18:35.568Z,99.99
2023-03-05T06:19:35.561Z,99.99
2023-03-05T06:20:35.584Z,99.99
2023-03-05T06:21:35.605Z,99.99
2023-03-05T06:22:35.684Z,99.99
2023-03-05T06:23:35.687Z,99.99
2023-03-05T06:24:35.304Z,99.99
2023-03-05T06:25:35.362Z,99.99
2023-03-05T06:26:35.342Z,99.99
2023-03-05T06:27:35.367Z,99.99
2023-03-05T06:28:34.822Z,99.99
2023-03-05T06:29:34.858Z,99.99
2023-03-05T06:30:34.903Z,99.99
2023-03-05T06:31:37.151Z,99.99
2023-03-05T06:32:35.050Z,99.99
2023-03-05T06:33:35.023Z,99.99
2023-03-05T06:34:35.567Z,99.99
2023-03-05T06:35:35.115Z,99.99
2023-03-05T06:36:35.135Z,99.99
2023-03-05T06:37:35.703Z,99.99
2023-03-05T06:38:35.227Z,99.99
2023-03-05T06:39:35.743Z,99.99
2023-03-05T06:40:35.711Z,99.99
2023-03-05T06:41:35.353Z,99.99
2023-03-05T06:42:35.767Z,99.99
2023-03-05T06:43:35.431Z,99.99
2023-03-05T06:44:35.466Z,99.99
2023-03-05T06:45:35.574Z,99.99
2023-03-05T06:46:35.571Z,99.99
2023-03-05T06:47:35.599Z,99.99
2023-03-05T06:48:35.919Z,99.99
2023-03-05T06:49:35.682Z,99.99
2023-03-05T06:50:35.709Z,99.99
2023-03-05T06:51:35.804Z,99.99
2023-03-05T06:52:36.031Z,99.99
2023-03-05T06:53:36.080Z,99.99
2023-03-05T06:54:36.105Z,99.99
2023-03-05T06:55:36.113Z,99.99
2023-03-05T06:56:36.259Z,99.99
2023-03-05T06:57:36.029Z,99.99
2023-03-05T06:58:36.035Z,99.99
2023-03-05T06:59:36.086Z,99.99
2023-03-05T07:00:36.118Z,99.99
2023-03-05T07:01:36.261Z,99.99
2023-03-05T07:02:36.289Z,99.99
2023-03-05T07:03:36.249Z,99.99
2023-03-05T07:04:36.306Z,99.99
2023-03-05T07:05:43.266Z,99.99
2023-03-05T07:06:36.381Z,99.99
2023-03-05T07:07:36.440Z,99.99
2023-03-05T07:08:36.457Z,99.99
2023-03-05T07:09:36.491Z,99.99
2023-03-05T07:10:36.540Z,99.99
2023-03-05T07:11:36.580Z,99.99
2023-03-05T07:12:36.653Z,99.99
2023-03-05T07:13:36.695Z,99.99
2023-03-05T07:14:40.327Z,99.99
2023-03-05T07:15:36.769Z,99.99
2023-03-05T07:16:36.796Z,99.99
2023-03-05T07:17:36.824Z,99.99
2023-03-05T07:18:36.908Z,99.99
2023-03-05T07:19:36.932Z,99.99
2023-03-05T07:20:36.959Z,99.99
2023-03-05T07:21:39.546Z,99.99
2023-03-05T07:22:37.037Z,99.99
2023-03-05T07:23:37.072Z,99.99
2023-03-05T07:24:37.147Z,99.99
2023-03-05T07:25:37.182Z,99.99
2023-03-05T07:26:37.254Z,99.99
2023-03-05T07:27:37.233Z,99.99
2023-03-05T07:28:37.284Z,99.99
2023-03-05T07:29:37.323Z,99.99
2023-03-05T07:30:37.449Z,99.99
2023-03-05T07:31:37.417Z,99.99
2023-03-05T07:32:37.472Z,99.99
2023-03-05T07:33:37.499Z,99.99
2023-03-05T07:34:37.527Z,99.99
2023-03-05T07:35:37.624Z,99.99
2023-03-05T07:36:37.641Z,99.99
2023-03-05T07:37:37.661Z,99.99
2023-03-05T07:38:37.703Z,99.99
2023-03-05T07:39:37.744Z,99.99
2023-03-05T07:40:38.776Z,99.99
2023-03-05T07:41:37.864Z,99.99
2023-03-05T07:42:37.898Z,99.99
2023-03-05T07:43:37.912Z,99.99
2023-03-05T07:44:44.777Z,99.99
2023-03-05T07:45:44.955Z,99.99
2023-03-05T07:46:44.774Z,99.99
2023-03-05T07:47:44.785Z,99.99
2023-03-05T07:48:38.153Z,99.99
2023-03-05T07:49:44.794Z,99.99
2023-03-05T07:50:38.194Z,99.99
2023-03-05T07:51:38.245Z,99.99
2023-03-05T07:52:38.280Z,99.99
2023-03-05T07:53:38.354Z,99.99
2023-03-05T07:54:38.385Z,99.99
2023-03-05T07:55:38.421Z,99.99
2023-03-05T07:56:38.448Z,99.99
2023-03-05T07:57:38.496Z,99.99
2023-03-05T07:58:38.529Z,99.99
2023-03-05T07:59:41.633Z,99.99
2023-03-05T08:00:41.641Z,99.99
2023-03-05T08:01:41.664Z,99.99
2023-03-05T08:02:41.743Z,99.99
2023-03-05T08:03:41.820Z,99.99
2023-03-05T08:04:38.787Z,99.99
2023-03-05T08:05:39.780Z,99.99
2023-03-05T08:06:38.898Z,99.99
2023-03-05T08:07:38.941Z,99.99
2023-03-05T08:08:38.962Z,99.99
2023-03-05T08:09:39.022Z,99.99
2023-03-05T08:10:41.911Z,99.99
2023-03-05T08:11:39.073Z,99.99
2023-03-05T08:12:39.173Z,99.99
2023-03-05T08:13:39.159Z,99.99
2023-03-05T08:14:39.215Z,99.99
2023-03-05T08:15:39.335Z,99.99
2023-03-05T08:16:39.330Z,99.99
2023-03-05T08:17:42.815Z,99.99
2023-03-05T08:18:39.401Z,99.99
2023-03-05T08:19:39.411Z,99.99
2023-03-05T08:20:41.215Z,99.99
2023-03-05T08:21:41.250Z,99.99
2023-03-05T08:22:41.260Z,99.99
2023-03-05T08:23:39.608Z,99.99
2023-03-05T08:24:39.636Z,99.99
2023-03-05T08:25:39.668Z,99.99
2023-03-05T08:26:39.741Z,99.99
2023-03-05T08:27:39.754Z,99.99
2023-03-05T08:28:39.801Z,99.99
2023-03-05T08:29:39.861Z,99.99
2023-03-05T08:30:41.398Z,99.99
2023-03-05T08:31:40.047Z,99.99
2023-03-05T08:32:40.012Z,99.99
2023-03-05T08:33:40.024Z,99.99
2023-03-05T08:34:40.073Z,99.99
2023-03-05T08:35:40.166Z,99.99
2023-03-05T08:36:40.142Z,99.99
2023-03-05T08:37:40.183Z,99.99
2023-03-05T08:38:40.233Z,99.99
2023-03-05T08:39:40.273Z,99.99
2023-03-05T08:40:42.310Z,99.99
2023-03-05T08:41:41.546Z,99.99
2023-03-05T08:42:41.578Z,99.99
2023-03-05T08:43:40.464Z,99.99
2023-03-05T08:44:40.488Z,99.99
2023-03-05T08:45:40.527Z,99.99
2023-03-05T08:46:40.634Z,99.99
2023-03-05T08:47:40.632Z,99.99
2023-03-05T08:48:40.675Z,99.99
2023-03-05T08:49:40.720Z,99.99
2023-03-05T08:50:40.775Z,99.99
2023-03-05T08:51:41.785Z,99.99
2023-03-05T08:52:40.820Z,99.99
2023-03-05T08:53:40.875Z,99.99
2023-03-05T08:54:40.943Z,99.99
2023-03-05T08:55:42.645Z,99.99
2023-03-05T08:56:40.990Z,99.99
2023-03-05T08:57:41.047Z,99.99
2023-03-05T08:58:41.085Z,99.99
2023-03-05T08:59:41.154Z,99.99
2023-03-05T09:00:41.331Z,99.99
2023-03-05T09:01:41.469Z,99.99
2023-03-05T09:02:41.400Z,99.99
2023-03-05T09:03:41.405Z,99.99
2023-03-05T09:04:41.472Z,99.99
2023-03-05T09:05:41.453Z,99.99
2023-03-05T09:06:41.478Z,99.99
2023-03-05T09:07:41.522Z,99.99
2023-03-05T09:08:41.527Z,99.99
2023-03-05T09:09:41.559Z,99.99
2023-03-05T09:10:41.611Z,99.99
2023-03-05T09:11:41.648Z,99.99
2023-03-05T09:12:41.717Z,99.99
2023-03-05T09:13:41.729Z,99.99
2023-03-05T09:14:41.782Z,99.99
2023-03-05T09:15:48.781Z,99.99
2023-03-05T09:16:41.968Z,99.99
2023-03-05T09:17:41.973Z,99.99
2023-03-05T09:18:45.499Z,99.99
2023-03-05T09:19:41.992Z,99.99
2023-03-05T09:20:42.046Z,99.99
2023-03-05T09:21:42.074Z,99.99
2023-03-05T09:22:45.553Z,99.99
2023-03-05T09:23:48.782Z,99.99
2023-03-05T09:24:42.220Z,99.99
2023-03-05T09:25:42.253Z,99.99
2023-03-05T09:26:42.316Z,99.99
2023-03-05T09:27:49.284Z,99.99
2023-03-05T09:28:42.391Z,99.99
2023-03-05T09:29:43.238Z,99.99
2023-03-05T09:30:49.307Z,99.99
2023-03-05T09:31:49.303Z,99.99
2023-03-05T09:32:49.284Z,99.99
2023-03-05T09:33:42.612Z,99.99
2023-03-05T09:34:42.650Z,99.99
2023-03-05T09:35:42.703Z,99.99
2023-03-05T09:36:42.738Z,99.99
2023-03-05T09:37:42.813Z,99.99
2023-03-05T09:38:42.862Z,99.99
2023-03-05T09:39:42.901Z,99.99
2023-03-05T09:40:42.910Z,99.99
2023-03-05T09:41:42.962Z,99.99
2023-03-05T09:42:58.322Z,99.99
2023-03-05T09:43:49.804Z,99.99
2023-03-05T09:44:45.912Z,99.99
2023-03-05T09:45:46.010Z,99.99
2023-03-05T09:46:43.226Z,99.99
2023-03-05T09:47:46.000Z,99.99
2023-03-05T09:48:46.030Z,99.99
2023-03-05T09:49:46.045Z,99.99
2023-03-05T09:50:46.060Z,99.99
2023-03-05T09:51:43.429Z,99.99
2023-03-05T09:52:43.444Z,99.99
2023-03-05T09:53:46.156Z,99.99
2023-03-05T09:54:50.290Z,99.99
2023-03-05T09:55:46.834Z,99.99
2023-03-05T09:56:46.271Z,99.99
2023-03-05T09:57:46.276Z,99.99
2023-03-05T09:58:46.259Z,99.99
2023-03-05T09:59:46.834Z,99.99
2023-03-05T10:00:46.796Z,99.99
2023-03-05T10:01:46.785Z,99.99
2023-03-05T10:02:43.997Z,99.99
2023-03-05T10:03:46.805Z,99.99
2023-03-05T10:04:46.175Z,99.99
2023-03-05T10:05:46.178Z,99.99
2023-03-05T10:06:44.066Z,99.99
2023-03-05T10:07:44.146Z,99.99
2023-03-05T10:08:44.153Z,99.99
2023-03-05T10:09:44.228Z,99.99
2023-03-05T10:10:44.243Z,99.99
2023-03-05T10:11:44.284Z,99.99
2023-03-05T10:12:44.370Z,99.99
2023-03-05T10:13:44.367Z,99.99
2023-03-05T10:14:44.446Z,99.99
2023-03-05T10:15:44.472Z,99.99
2023-03-05T10:16:44.614Z,99.99
2023-03-05T10:17:44.554Z,99.99
2023-03-05T10:18:44.597Z,99.99
2023-03-05T10:19:44.643Z,99.99
2023-03-05T10:20:44.685Z,99.99
2023-03-05T10:21:44.759Z,99.99
2023-03-05T10:22:44.775Z,99.99
2023-03-05T10:23:44.813Z,99.99
2023-03-05T10:24:44.869Z,99.99
2023-03-05T10:25:45.795Z,99.99
2023-03-05T10:26:44.957Z,99.99
2023-03-05T10:27:45.019Z,99.99
2023-03-05T10:28:45.066Z,99.99
2023-03-05T10:29:45.077Z,99.99
2023-03-05T10:30:45.130Z,99.99
2023-03-05T10:31:45.209Z,99.99
2023-03-05T10:32:45.260Z,99.99
2023-03-05T10:33:45.289Z,99.99
2023-03-05T10:34:45.303Z,99.99
2023-03-05T10:35:45.519Z,99.99
2023-03-05T10:36:45.392Z,99.99
2023-03-05T10:37:45.443Z,99.99
2023-03-05T10:38:45.480Z,99.99
2023-03-05T10:39:45.535Z,99.99
2023-03-05T10:40:45.606Z,99.99
2023-03-05T10:41:45.629Z,99.99
2023-03-05T10:42:45.661Z,99.99
2023-03-05T10:43:45.719Z,99.99
2023-03-05T10:44:45.746Z,99.99
2023-03-05T10:45:45.878Z,99.99
2023-03-05T10:46:45.840Z,99.99
2023-03-05T10:47:45.896Z,99.99
2023-03-05T10:48:45.928Z,99.99
2023-03-05T10:49:45.982Z,99.99
2023-03-05T10:50:46.046Z,99.99
2023-03-05T10:51:46.075Z,99.99
2023-03-05T10:52:46.804Z,99.99
2023-03-05T10:53:46.163Z,99.99
2023-03-05T10:54:46.206Z,99.99
2023-03-05T10:55:46.273Z,99.99
2023-03-05T10:56:46.289Z,99.99
2023-03-05T10:57:46.352Z,99.99
2023-03-05T10:58:46.406Z,99.99
2023-03-05T10:59:46.443Z,99.99
2023-03-05T11:00:46.471Z,99.99
2023-03-05T11:01:46.554Z,99.99
2023-03-05T11:02:46.665Z,99.99
2023-03-05T11:03:46.628Z,99.99
2023-03-05T11:04:46.653Z,99.99
2023-03-05T11:05:46.691Z,99.99
2023-03-05T11:06:46.786Z,99.99
2023-03-05T11:07:46.786Z,99.99
2023-03-05T11:08:46.868Z,99.99
2023-03-05T11:09:46.878Z,99.99
2023-03-05T11:10:46.952Z,99.99
2023-03-05T11:11:46.958Z,99.99
2023-03-05T11:12:53.804Z,99.99
2023-03-05T11:13:50.382Z,99.99
2023-03-05T11:14:49.975Z,99.99
2023-03-05T11:15:50.032Z,99.99
2023-03-05T11:16:50.040Z,99.99
2023-03-05T11:17:50.332Z,99.99
2023-03-05T11:18:50.089Z,99.99
2023-03-05T11:19:50.090Z,99.99
2023-03-05T11:20:50.136Z,99.99
2023-03-05T11:21:50.129Z,99.99
2023-03-05T11:22:50.180Z,99.99
2023-03-05T11:23:47.497Z,99.99
2023-03-05T11:24:47.577Z,99.99
2023-03-05T11:25:47.582Z,99.99
2023-03-05T11:26:47.686Z,99.99
2023-03-05T11:27:49.593Z,99.99
2023-03-05T11:28:47.735Z,99.99
2023-03-05T11:29:47.774Z,99.99
2023-03-05T11:30:47.852Z,99.99
2023-03-05T11:31:47.898Z,99.99
2023-03-05T11:32:47.957Z,99.99
2023-03-05T11:33:47.961Z,99.99
2023-03-05T11:34:48.003Z,99.99
2023-03-05T11:35:48.160Z,99.99
2023-03-05T11:36:48.123Z,99.99
2023-03-05T11:37:48.399Z,99.99
2023-03-05T11:38:48.191Z,99.99
2023-03-05T11:39:48.275Z,99.99
2023-03-05T11:40:48.289Z,99.99
2023-03-05T11:41:48.360Z,99.99
2023-03-05T11:42:48.399Z,99.99
2023-03-05T11:43:48.432Z,99.99
2023-03-05T11:44:48.513Z,99.99
2023-03-05T11:45:48.564Z,99.99
2023-03-05T11:46:48.587Z,99.99
2023-03-05T11:47:48.620Z,99.99
2023-03-05T11:48:48.666Z,99.99
2023-03-05T11:49:48.754Z,99.99
2023-03-05T11:50:48.755Z,99.99
2023-03-05T11:51:48.808Z,99.99
2023-03-05T11:52:48.861Z,99.99
2023-03-05T11:53:48.903Z,99.99
2023-03-05T11:54:48.947Z,99.99
2023-03-05T11:55:49.036Z,99.99
2023-03-05T11:56:49.064Z,99.99
2023-03-05T11:57:49.092Z,99.99
2023-03-05T11:58:49.132Z,99.99
2023-03-05T11:59:49.188Z,99.99
2023-03-05T12:00:49.227Z,99.99
2023-03-05T12:01:49.813Z,99.99
2023-03-05T12:02:49.343Z,99.99
2023-03-05T12:03:49.390Z,99.99
2023-03-05T12:04:49.422Z,99.99
2023-03-05T12:05:49.498Z,99.99
2023-03-05T12:06:49.552Z,99.99
2023-03-05T12:07:49.592Z,99.99
2023-03-05T12:08:49.689Z,98.88
2023-03-05T12:09:49.797Z,98.13
2023-03-05T12:10:49.736Z,96.65
2023-03-05T12:11:49.757Z,95.22
2023-03-05T12:12:49.809Z,97.45
2023-03-05T12:13:49.854Z,99.55
2023-03-05T12:14:49.905Z,99.99
2023-03-05T12:15:50.027Z,99.99
2023-03-05T12:16:50.027Z,99.74
2023-03-05T12:17:50.041Z,98.74
2023-03-05T12:18:50.099Z,98.93
2023-03-05T12:19:50.138Z,98.93
2023-03-05T12:20:50.218Z,97.69
2023-03-05T12:21:50.272Z,98.41
2023-03-05T12:22:50.295Z,97.46
2023-03-05T12:23:50.351Z,96.55
2023-03-05T12:24:50.396Z,93.89
2023-03-05T12:25:50.437Z,96.08
2023-03-05T12:26:50.524Z,97.64
2023-03-05T12:27:50.534Z,98.97
2023-03-05T12:28:53.954Z,99.99
2023-03-05T12:29:57.319Z,99.99
2023-03-05T12:30:57.337Z,99.99
2023-03-05T12:31:54.048Z,99.99
2023-03-05T12:32:57.322Z,99.99
2023-03-05T12:33:58.033Z,99.99
2023-03-05T12:34:53.931Z,99.99
2023-03-05T12:35:54.005Z,99.99
2023-03-05T12:36:50.974Z,99.99
2023-03-05T12:37:54.021Z,99.99
2023-03-05T12:38:54.042Z,99.99
2023-03-05T12:39:54.074Z,99.99
2023-03-05T12:40:54.106Z,99.99
2023-03-05T12:41:51.231Z,99.99
2023-03-05T12:42:51.307Z,99.99
2023-03-05T12:43:51.331Z,99.99
2023-03-05T12:44:51.371Z,99.99
2023-03-05T12:45:51.425Z,99.99
2023-03-05T12:46:51.513Z,99.99
2023-03-05T12:47:54.066Z,99.99
2023-03-05T12:48:51.594Z,99.99
2023-03-05T12:49:51.631Z,99.99
2023-03-05T12:50:52.328Z,99.99
2023-03-05T12:51:51.720Z,99.99
2023-03-05T12:52:52.358Z,99.99